sensor_id;sensor_type;location;lat;lon;timestamp;P1;durP1;ratioP1;P2;durP2;ratioP2
50249;SDS011;36133;42.522;27.456;2022-10-31T00:00:25;19.27;;;11.98;;
50249;SDS011;36133;42.522;27.456;2022-10-31T00:02:50;20.60;;;12.73;;
50249;SDS011;36133;42.522;27.456;2022-10-31T00:05:16;24.33;;;13.48;;
50249;SDS011;36133;42.522;27.456;2022-10-31T00:07:41;17.55;;;13.00;;
50249;SDS011;36133;42.522;27.456;2022-10-31T00:10:07;17.80;;;12.20;;
50249;SDS011;36133;42.522;27.456;2022-10-31T00:12:33;18.83;;;12.60;;
50249;SDS011;36133;42.522;27.456;2022-10-31T00:14:58;18.90;;;12.57;;
50249;SDS011;36133;42.522;27.456;2022-10-31T00:17:24;18.05;;;12.60;;
50249;SDS011;36133;42.522;27.456;2022-10-31T00:19:50;17.80;;;12.10;;
50249;SDS011;36133;42.522;27.456;2022-10-31T00:22:15;23.10;;;12.52;;
50249;SDS011;36133;42.522;27.456;2022-10-31T00:24:41;19.02;;;11.30;;
50249;SDS011;36133;42.522;27.456;2022-10-31T00:27:06;21.48;;;11.95;;
50249;SDS011;36133;42.522;27.456;2022-10-31T00:29:32;20.35;;;12.35;;
50249;SDS011;36133;42.522;27.456;2022-10-31T00:32:02;22.77;;;13.10;;
50249;SDS011;36133;42.522;27.456;2022-10-31T00:37:51;24.02;;;12.40;;
50249;SDS011;36133;42.522;27.456;2022-10-31T00:40:17;22.75;;;12.32;;
50249;SDS011;36133;42.522;27.456;2022-10-31T00:42:42;20.52;;;12.05;;
50249;SDS011;36133;42.522;27.456;2022-10-31T00:45:09;22.15;;;10.95;;
50249;SDS011;36133;42.522;27.456;2022-10-31T00:47:35;17.30;;;10.13;;
50249;SDS011;36133;42.522;27.456;2022-10-31T00:50:00;18.52;;;10.02;;
50249;SDS011;36133;42.522;27.456;2022-10-31T00:52:27;19.58;;;10.13;;
50249;SDS011;36133;42.522;27.456;2022-10-31T00:54:52;12.48;;;8.93;;
50249;SDS011;36133;42.522;27.456;2022-10-31T00:57:18;19.00;;;9.27;;
50249;SDS011;36133;42.522;27.456;2022-10-31T00:59:43;16.42;;;9.25;;
50249;SDS011;36133;42.522;27.456;2022-10-31T01:02:09;19.30;;;10.10;;
50249;SDS011;36133;42.522;27.456;2022-10-31T01:04:34;18.88;;;9.38;;
50249;SDS011;36133;42.522;27.456;2022-10-31T01:07:00;13.73;;;8.73;;
50249;SDS011;36133;42.522;27.456;2022-10-31T01:09:25;15.90;;;8.85;;
50249;SDS011;36133;42.522;27.456;2022-10-31T01:11:51;16.95;;;9.77;;
50249;SDS011;36133;42.522;27.456;2022-10-31T01:14:16;15.30;;;9.27;;
50249;SDS011;36133;42.522;27.456;2022-10-31T01:16:42;17.55;;;9.00;;
50249;SDS011;36133;42.522;27.456;2022-10-31T01:19:07;15.88;;;9.27;;
50249;SDS011;36133;42.522;27.456;2022-10-31T01:21:33;20.02;;;10.32;;
50249;SDS011;36133;42.522;27.456;2022-10-31T01:23:59;15.98;;;10.23;;
50249;SDS011;36133;42.522;27.456;2022-10-31T01:26:28;18.10;;;11.07;;
50249;SDS011;36133;42.522;27.456;2022-10-31T01:28:57;17.17;;;10.80;;
50249;SDS011;36133;42.522;27.456;2022-10-31T01:31:25;18.98;;;10.70;;
50249;SDS011;36133;42.522;27.456;2022-10-31T01:37:16;21.45;;;10.65;;
50249;SDS011;36133;42.522;27.456;2022-10-31T01:39:42;17.45;;;9.57;;
50249;SDS011;36133;42.522;27.456;2022-10-31T01:42:10;18.10;;;10.55;;
50249;SDS011;36133;42.522;27.456;2022-10-31T01:48:07;15.23;;;9.70;;
50249;SDS011;36133;42.522;27.456;2022-10-31T01:50:40;18.17;;;9.98;;
50249;SDS011;36133;42.522;27.456;2022-10-31T01:53:07;15.65;;;10.13;;
50249;SDS011;36133;42.522;27.456;2022-10-31T01:55:36;17.50;;;10.43;;
50249;SDS011;36133;42.522;27.456;2022-10-31T01:58:13;19.92;;;10.65;;
50249;SDS011;36133;42.522;27.456;2022-10-31T02:01:15;16.30;;;10.82;;
50249;SDS011;36133;42.522;27.456;2022-10-31T02:03:42;22.08;;;9.95;;
50249;SDS011;36133;42.522;27.456;2022-10-31T02:06:10;19.15;;;10.45;;
50249;SDS011;36133;42.522;27.456;2022-10-31T02:12:33;13.80;;;9.25;;
50249;SDS011;36133;42.522;27.456;2022-10-31T02:15:03;20.00;;;9.95;;
50249;SDS011;36133;42.522;27.456;2022-10-31T02:17:29;14.40;;;8.55;;
50249;SDS011;36133;42.522;27.456;2022-10-31T02:20:00;16.77;;;9.40;;
50249;SDS011;36133;42.522;27.456;2022-10-31T02:27:54;16.92;;;8.23;;
50249;SDS011;36133;42.522;27.456;2022-10-31T02:30:51;15.00;;;8.30;;
50249;SDS011;36133;42.522;27.456;2022-10-31T02:36:04;15.43;;;7.85;;
50249;SDS011;36133;42.522;27.456;2022-10-31T02:38:52;13.13;;;7.72;;
50249;SDS011;36133;42.522;27.456;2022-10-31T02:41:50;17.40;;;8.05;;
50249;SDS011;36133;42.522;27.456;2022-10-31T02:46:57;23.65;;;14.68;;
50249;SDS011;36133;42.522;27.456;2022-10-31T02:50:02;25.45;;;13.98;;
50249;SDS011;36133;42.522;27.456;2022-10-31T02:52:25;24.77;;;13.02;;
50249;SDS011;36133;42.522;27.456;2022-10-31T02:54:53;22.75;;;11.57;;
50249;SDS011;36133;42.522;27.456;2022-10-31T02:57:28;17.48;;;9.75;;
50249;SDS011;36133;42.522;27.456;2022-10-31T02:59:58;14.63;;;9.65;;
50249;SDS011;36133;42.522;27.456;2022-10-31T03:08:02;14.25;;;8.95;;
50249;SDS011;36133;42.522;27.456;2022-10-31T03:10:52;17.00;;;9.02;;
50249;SDS011;36133;42.522;27.456;2022-10-31T03:13:24;17.35;;;9.38;;
50249;SDS011;36133;42.522;27.456;2022-10-31T03:15:58;17.55;;;8.60;;
50249;SDS011;36133;42.522;27.456;2022-10-31T03:18:53;15.40;;;9.10;;
50249;SDS011;36133;42.522;27.456;2022-10-31T03:25:09;17.52;;;9.43;;
50249;SDS011;36133;42.522;27.456;2022-10-31T03:27:37;18.05;;;9.20;;
50249;SDS011;36133;42.522;27.456;2022-10-31T03:30:05;19.50;;;9.82;;
50249;SDS011;36133;42.522;27.456;2022-10-31T03:32:47;13.30;;;8.77;;
50249;SDS011;36133;42.522;27.456;2022-10-31T03:35:17;15.20;;;9.02;;
50249;SDS011;36133;42.522;27.456;2022-10-31T03:37:46;15.80;;;9.10;;
50249;SDS011;36133;42.522;27.456;2022-10-31T03:40:13;15.13;;;9.60;;
50249;SDS011;36133;42.522;27.456;2022-10-31T03:42:43;14.95;;;9.70;;
50249;SDS011;36133;42.522;27.456;2022-10-31T03:45:16;15.48;;;10.13;;
50249;SDS011;36133;42.522;27.456;2022-10-31T03:47:48;14.82;;;9.63;;
50249;SDS011;36133;42.522;27.456;2022-10-31T03:50:14;18.45;;;9.30;;
50249;SDS011;36133;42.522;27.456;2022-10-31T03:55:39;15.38;;;9.02;;
50249;SDS011;36133;42.522;27.456;2022-10-31T03:58:28;24.83;;;9.02;;
50249;SDS011;36133;42.522;27.456;2022-10-31T04:00:59;16.45;;;9.52;;
50249;SDS011;36133;42.522;27.456;2022-10-31T04:03:28;22.25;;;10.85;;
50249;SDS011;36133;42.522;27.456;2022-10-31T04:05:58;23.92;;;10.75;;
50249;SDS011;36133;42.522;27.456;2022-10-31T04:08:28;40.65;;;11.45;;
50249;SDS011;36133;42.522;27.456;2022-10-31T04:10:56;21.73;;;10.63;;
50249;SDS011;36133;42.522;27.456;2022-10-31T04:13:29;24.67;;;11.35;;
50249;SDS011;36133;42.522;27.456;2022-10-31T04:15:57;23.45;;;10.10;;
50249;SDS011;36133;42.522;27.456;2022-10-31T04:18:23;23.30;;;10.93;;
50249;SDS011;36133;42.522;27.456;2022-10-31T04:20:49;27.80;;;10.60;;
50249;SDS011;36133;42.522;27.456;2022-10-31T04:23:25;18.45;;;11.27;;
50249;SDS011;36133;42.522;27.456;2022-10-31T04:25:51;28.25;;;11.15;;
50249;SDS011;36133;42.522;27.456;2022-10-31T04:28:17;23.40;;;12.23;;
50249;SDS011;36133;42.522;27.456;2022-10-31T04:30:43;25.15;;;12.50;;
50249;SDS011;36133;42.522;27.456;2022-10-31T04:33:09;21.92;;;11.73;;
50249;SDS011;36133;42.522;27.456;2022-10-31T04:35:34;23.88;;;12.75;;
50249;SDS011;36133;42.522;27.456;2022-10-31T04:38:00;23.95;;;12.52;;
50249;SDS011;36133;42.522;27.456;2022-10-31T04:40:25;22.45;;;11.73;;
50249;SDS011;36133;42.522;27.456;2022-10-31T04:42:51;21.77;;;11.70;;
50249;SDS011;36133;42.522;27.456;2022-10-31T04:45:16;20.23;;;12.40;;
50249;SDS011;36133;42.522;27.456;2022-10-31T04:47:42;23.10;;;11.85;;
50249;SDS011;36133;42.522;27.456;2022-10-31T04:50:08;22.75;;;12.40;;
50249;SDS011;36133;42.522;27.456;2022-10-31T04:52:38;22.98;;;12.77;;
50249;SDS011;36133;42.522;27.456;2022-10-31T04:55:08;21.00;;;11.73;;
50249;SDS011;36133;42.522;27.456;2022-10-31T04:57:47;24.95;;;12.27;;
50249;SDS011;36133;42.522;27.456;2022-10-31T05:00:14;24.40;;;12.00;;
50249;SDS011;36133;42.522;27.456;2022-10-31T05:02:48;27.17;;;12.25;;
50249;SDS011;36133;42.522;27.456;2022-10-31T05:05:19;22.95;;;12.25;;
50249;SDS011;36133;42.522;27.456;2022-10-31T05:07:47;25.23;;;12.55;;
50249;SDS011;36133;42.522;27.456;2022-10-31T05:10:15;27.17;;;12.30;;
50249;SDS011;36133;42.522;27.456;2022-10-31T05:12:55;27.65;;;12.18;;
50249;SDS011;36133;42.522;27.456;2022-10-31T05:15:22;22.65;;;14.40;;
50249;SDS011;36133;42.522;27.456;2022-10-31T05:17:49;31.08;;;14.52;;
50249;SDS011;36133;42.522;27.456;2022-10-31T05:20:16;28.58;;;13.77;;
50249;SDS011;36133;42.522;27.456;2022-10-31T05:22:45;40.83;;;15.48;;
50249;SDS011;36133;42.522;27.456;2022-10-31T05:25:13;36.20;;;15.15;;
50249;SDS011;36133;42.522;27.456;2022-10-31T05:27:43;31.02;;;15.13;;
50249;SDS011;36133;42.522;27.456;2022-10-31T05:30:10;33.22;;;15.30;;
50249;SDS011;36133;42.522;27.456;2022-10-31T05:32:38;29.08;;;14.65;;
50249;SDS011;36133;42.522;27.456;2022-10-31T05:35:08;30.40;;;14.73;;
50249;SDS011;36133;42.522;27.456;2022-10-31T05:37:35;29.73;;;15.23;;
50249;SDS011;36133;42.522;27.456;2022-10-31T05:40:05;27.25;;;15.13;;
50249;SDS011;36133;42.522;27.456;2022-10-31T05:42:33;31.02;;;14.27;;
50249;SDS011;36133;42.522;27.456;2022-10-31T05:44:59;30.60;;;15.98;;
50249;SDS011;36133;42.522;27.456;2022-10-31T05:47:24;38.20;;;15.60;;
50249;SDS011;36133;42.522;27.456;2022-10-31T05:49:50;29.52;;;15.70;;
50249;SDS011;36133;42.522;27.456;2022-10-31T05:52:17;30.95;;;13.30;;
50249;SDS011;36133;42.522;27.456;2022-10-31T05:54:43;38.42;;;12.95;;
50249;SDS011;36133;42.522;27.456;2022-10-31T05:57:09;29.15;;;13.02;;
50249;SDS011;36133;42.522;27.456;2022-10-31T05:59:35;23.95;;;12.93;;
50249;SDS011;36133;42.522;27.456;2022-10-31T06:02:00;21.42;;;11.95;;
50249;SDS011;36133;42.522;27.456;2022-10-31T06:04:26;22.08;;;10.68;;
50249;SDS011;36133;42.522;27.456;2022-10-31T06:06:52;22.50;;;10.93;;
50249;SDS011;36133;42.522;27.456;2022-10-31T06:09:17;24.58;;;11.20;;
50249;SDS011;36133;42.522;27.456;2022-10-31T06:11:43;25.20;;;13.15;;
50249;SDS011;36133;42.522;27.456;2022-10-31T06:14:08;22.80;;;11.38;;
50249;SDS011;36133;42.522;27.456;2022-10-31T06:16:36;30.20;;;14.23;;
50249;SDS011;36133;42.522;27.456;2022-10-31T06:19:02;28.77;;;14.25;;
50249;SDS011;36133;42.522;27.456;2022-10-31T06:21:27;39.17;;;15.52;;
50249;SDS011;36133;42.522;27.456;2022-10-31T06:23:56;26.58;;;12.73;;
50249;SDS011;36133;42.522;27.456;2022-10-31T06:26:21;27.98;;;12.90;;
50249;SDS011;36133;42.522;27.456;2022-10-31T06:28:47;27.40;;;13.70;;
50249;SDS011;36133;42.522;27.456;2022-10-31T06:31:12;31.02;;;14.20;;
50249;SDS011;36133;42.522;27.456;2022-10-31T06:33:40;27.40;;;13.48;;
50249;SDS011;36133;42.522;27.456;2022-10-31T06:36:07;33.38;;;14.10;;
50249;SDS011;36133;42.522;27.456;2022-10-31T06:38:33;23.65;;;12.80;;
50249;SDS011;36133;42.522;27.456;2022-10-31T06:41:08;34.58;;;12.75;;
50249;SDS011;36133;42.522;27.456;2022-10-31T06:43:33;33.20;;;12.15;;
50249;SDS011;36133;42.522;27.456;2022-10-31T06:46:02;33.47;;;11.35;;
50249;SDS011;36133;42.522;27.456;2022-10-31T06:48:29;30.00;;;11.38;;
50249;SDS011;36133;42.522;27.456;2022-10-31T06:50:58;20.33;;;8.88;;
50249;SDS011;36133;42.522;27.456;2022-10-31T06:53:24;17.70;;;7.70;;
50249;SDS011;36133;42.522;27.456;2022-10-31T06:55:50;26.27;;;9.63;;
50249;SDS011;36133;42.522;27.456;2022-10-31T06:58:16;23.73;;;10.43;;
50249;SDS011;36133;42.522;27.456;2022-10-31T07:00:41;26.35;;;11.18;;
50249;SDS011;36133;42.522;27.456;2022-10-31T07:03:10;27.70;;;10.70;;
50249;SDS011;36133;42.522;27.456;2022-10-31T07:05:36;29.83;;;12.45;;
50249;SDS011;36133;42.522;27.456;2022-10-31T07:08:04;25.90;;;11.75;;
50249;SDS011;36133;42.522;27.456;2022-10-31T07:10:32;29.48;;;12.75;;
50249;SDS011;36133;42.522;27.456;2022-10-31T07:13:03;27.20;;;12.60;;
50249;SDS011;36133;42.522;27.456;2022-10-31T07:15:33;24.10;;;11.45;;
50249;SDS011;36133;42.522;27.456;2022-10-31T07:18:01;30.23;;;11.52;;
50249;SDS011;36133;42.522;27.456;2022-10-31T07:20:27;24.30;;;11.15;;
50249;SDS011;36133;42.522;27.456;2022-10-31T07:22:57;25.85;;;11.27;;
50249;SDS011;36133;42.522;27.456;2022-10-31T07:25:23;21.92;;;8.05;;
50249;SDS011;36133;42.522;27.456;2022-10-31T07:27:49;11.60;;;6.47;;
50249;SDS011;36133;42.522;27.456;2022-10-31T07:30:18;11.45;;;5.97;;
50249;SDS011;36133;42.522;27.456;2022-10-31T07:32:47;15.02;;;6.25;;
50249;SDS011;36133;42.522;27.456;2022-10-31T07:35:27;11.05;;;5.35;;
50249;SDS011;36133;42.522;27.456;2022-10-31T07:37:53;12.55;;;5.80;;
50249;SDS011;36133;42.522;27.456;2022-10-31T07:40:20;10.95;;;5.90;;
50249;SDS011;36133;42.522;27.456;2022-10-31T07:42:47;15.32;;;5.80;;
50249;SDS011;36133;42.522;27.456;2022-10-31T07:45:15;14.90;;;5.65;;
50249;SDS011;36133;42.522;27.456;2022-10-31T07:47:45;18.73;;;6.18;;
50249;SDS011;36133;42.522;27.456;2022-10-31T07:50:29;11.65;;;5.75;;
50249;SDS011;36133;42.522;27.456;2022-10-31T07:53:03;11.05;;;5.60;;
50249;SDS011;36133;42.522;27.456;2022-10-31T07:55:36;11.48;;;5.60;;
50249;SDS011;36133;42.522;27.456;2022-10-31T07:58:12;8.30;;;5.30;;
50249;SDS011;36133;42.522;27.456;2022-10-31T08:00:40;14.57;;;5.43;;
50249;SDS011;36133;42.522;27.456;2022-10-31T08:03:11;11.80;;;5.97;;
50249;SDS011;36133;42.522;27.456;2022-10-31T08:05:41;7.97;;;5.45;;
50249;SDS011;36133;42.522;27.456;2022-10-31T08:08:09;13.80;;;6.57;;
50249;SDS011;36133;42.522;27.456;2022-10-31T08:10:40;11.50;;;6.28;;
50249;SDS011;36133;42.522;27.456;2022-10-31T08:13:08;17.17;;;6.25;;
50249;SDS011;36133;42.522;27.456;2022-10-31T08:15:38;8.93;;;6.15;;
50249;SDS011;36133;42.522;27.456;2022-10-31T08:18:06;10.30;;;6.82;;
50249;SDS011;36133;42.522;27.456;2022-10-31T08:20:39;13.02;;;6.50;;
50249;SDS011;36133;42.522;27.456;2022-10-31T08:25:42;13.13;;;7.13;;
50249;SDS011;36133;42.522;27.456;2022-10-31T08:28:08;11.15;;;7.10;;
50249;SDS011;36133;42.522;27.456;2022-10-31T08:30:36;14.80;;;7.53;;
50249;SDS011;36133;42.522;27.456;2022-10-31T08:33:04;13.50;;;7.18;;
50249;SDS011;36133;42.522;27.456;2022-10-31T08:35:43;13.73;;;6.80;;
50249;SDS011;36133;42.522;27.456;2022-10-31T08:38:12;22.88;;;8.23;;
50249;SDS011;36133;42.522;27.456;2022-10-31T08:40:39;14.25;;;7.30;;
50249;SDS011;36133;42.522;27.456;2022-10-31T08:43:05;41.15;;;9.20;;
50249;SDS011;36133;42.522;27.456;2022-10-31T08:45:37;9.15;;;6.32;;
50249;SDS011;36133;42.522;27.456;2022-10-31T08:48:13;11.73;;;6.47;;
50249;SDS011;36133;42.522;27.456;2022-10-31T08:50:43;12.35;;;5.93;;
50249;SDS011;36133;42.522;27.456;2022-10-31T08:53:14;11.25;;;6.10;;
50249;SDS011;36133;42.522;27.456;2022-10-31T08:55:42;13.98;;;6.63;;
50249;SDS011;36133;42.522;27.456;2022-10-31T08:58:09;24.90;;;6.97;;
50249;SDS011;36133;42.522;27.456;2022-10-31T09:00:37;15.10;;;6.68;;
50249;SDS011;36133;42.522;27.456;2022-10-31T09:03:04;13.95;;;6.50;;
50249;SDS011;36133;42.522;27.456;2022-10-31T09:05:34;15.98;;;6.25;;
50249;SDS011;36133;42.522;27.456;2022-10-31T09:08:02;13.75;;;6.65;;
50249;SDS011;36133;42.522;27.456;2022-10-31T09:10:29;13.55;;;6.65;;
50249;SDS011;36133;42.522;27.456;2022-10-31T09:13:01;16.25;;;6.90;;
50249;SDS011;36133;42.522;27.456;2022-10-31T09:18:09;12.38;;;6.50;;
50249;SDS011;36133;42.522;27.456;2022-10-31T09:20:37;14.43;;;6.70;;
50249;SDS011;36133;42.522;27.456;2022-10-31T09:23:05;14.73;;;7.47;;
50249;SDS011;36133;42.522;27.456;2022-10-31T09:25:34;13.95;;;6.80;;
50249;SDS011;36133;42.522;27.456;2022-10-31T09:28:04;11.15;;;6.40;;
50249;SDS011;36133;42.522;27.456;2022-10-31T09:30:32;13.95;;;7.25;;
50249;SDS011;36133;42.522;27.456;2022-10-31T09:33:00;10.75;;;7.15;;
50249;SDS011;36133;42.522;27.456;2022-10-31T09:35:27;10.35;;;6.25;;
50249;SDS011;36133;42.522;27.456;2022-10-31T09:37:59;13.23;;;7.72;;
50249;SDS011;36133;42.522;27.456;2022-10-31T09:40:34;16.65;;;7.93;;
50249;SDS011;36133;42.522;27.456;2022-10-31T09:43:09;14.13;;;7.25;;
50249;SDS011;36133;42.522;27.456;2022-10-31T09:50:58;15.43;;;7.80;;
50249;SDS011;36133;42.522;27.456;2022-10-31T09:53:42;19.02;;;8.07;;
50249;SDS011;36133;42.522;27.456;2022-10-31T09:56:13;44.60;;;9.38;;
50249;SDS011;36133;42.522;27.456;2022-10-31T09:59:00;13.07;;;8.55;;
50249;SDS011;36133;42.522;27.456;2022-10-31T10:01:47;14.65;;;7.95;;
50249;SDS011;36133;42.522;27.456;2022-10-31T10:07:06;18.02;;;9.77;;
50249;SDS011;36133;42.522;27.456;2022-10-31T10:10:02;13.95;;;8.52;;
50249;SDS011;36133;42.522;27.456;2022-10-31T10:15:45;11.73;;;8.63;;
50249;SDS011;36133;42.522;27.456;2022-10-31T10:18:40;19.75;;;9.65;;
50249;SDS011;36133;42.522;27.456;2022-10-31T10:21:22;12.18;;;8.45;;
50249;SDS011;36133;42.522;27.456;2022-10-31T10:30:02;14.60;;;7.90;;
50249;SDS011;36133;42.522;27.456;2022-10-31T10:35:30;14.95;;;9.00;;
50249;SDS011;36133;42.522;27.456;2022-10-31T10:40:39;19.58;;;9.10;;
50249;SDS011;36133;42.522;27.456;2022-10-31T10:49:14;17.83;;;8.38;;
50249;SDS011;36133;42.522;27.456;2022-10-31T10:51:44;18.48;;;8.38;;
50249;SDS011;36133;42.522;27.456;2022-10-31T10:59:28;14.73;;;7.75;;
50249;SDS011;36133;42.522;27.456;2022-10-31T11:01:55;16.00;;;8.25;;
50249;SDS011;36133;42.522;27.456;2022-10-31T11:06:59;19.35;;;8.13;;
50249;SDS011;36133;42.522;27.456;2022-10-31T11:09:26;12.43;;;8.07;;
50249;SDS011;36133;42.522;27.456;2022-10-31T11:11:52;13.70;;;7.78;;
50249;SDS011;36133;42.522;27.456;2022-10-31T11:14:19;22.80;;;8.52;;
50249;SDS011;36133;42.522;27.456;2022-10-31T11:16:46;14.93;;;7.60;;
50249;SDS011;36133;42.522;27.456;2022-10-31T11:19:22;16.73;;;8.27;;
50249;SDS011;36133;42.522;27.456;2022-10-31T11:21:52;13.43;;;7.65;;
50249;SDS011;36133;42.522;27.456;2022-10-31T11:28:01;14.35;;;8.20;;
50249;SDS011;36133;42.522;27.456;2022-10-31T11:30:35;12.70;;;7.38;;
50249;SDS011;36133;42.522;27.456;2022-10-31T11:33:14;13.73;;;7.72;;
50249;SDS011;36133;42.522;27.456;2022-10-31T11:35:43;15.25;;;7.90;;
50249;SDS011;36133;42.522;27.456;2022-10-31T11:38:35;16.92;;;8.15;;
50249;SDS011;36133;42.522;27.456;2022-10-31T11:41:25;19.98;;;8.93;;
50249;SDS011;36133;42.522;27.456;2022-10-31T11:43:58;17.77;;;8.88;;
50249;SDS011;36133;42.522;27.456;2022-10-31T11:46:32;17.33;;;9.00;;
50249;SDS011;36133;42.522;27.456;2022-10-31T11:49:04;16.90;;;8.43;;
50249;SDS011;36133;42.522;27.456;2022-10-31T11:51:47;18.88;;;9.48;;
50249;SDS011;36133;42.522;27.456;2022-10-31T11:54:19;15.00;;;8.55;;
50249;SDS011;36133;42.522;27.456;2022-10-31T11:56:52;12.52;;;8.02;;
50249;SDS011;36133;42.522;27.456;2022-10-31T11:59:27;15.93;;;7.88;;
50249;SDS011;36133;42.522;27.456;2022-10-31T12:01:57;19.00;;;8.18;;
50249;SDS011;36133;42.522;27.456;2022-10-31T12:04:30;21.83;;;8.73;;
50249;SDS011;36133;42.522;27.456;2022-10-31T12:07:02;14.85;;;8.88;;
50249;SDS011;36133;42.522;27.456;2022-10-31T12:09:28;17.27;;;7.70;;
50249;SDS011;36133;42.522;27.456;2022-10-31T12:12:20;9.82;;;7.03;;
50249;SDS011;36133;42.522;27.456;2022-10-31T12:21:19;13.75;;;7.78;;
50249;SDS011;36133;42.522;27.456;2022-10-31T12:27:03;11.93;;;7.47;;
50249;SDS011;36133;42.522;27.456;2022-10-31T12:32:55;13.95;;;7.60;;
50249;SDS011;36133;42.522;27.456;2022-10-31T12:35:44;11.85;;;7.57;;
50249;SDS011;36133;42.522;27.456;2022-10-31T12:41:14;14.82;;;7.50;;
50249;SDS011;36133;42.522;27.456;2022-10-31T12:44:00;15.73;;;7.95;;
50249;SDS011;36133;42.522;27.456;2022-10-31T12:49:24;12.10;;;7.15;;
50249;SDS011;36133;42.522;27.456;2022-10-31T12:57:44;16.75;;;7.88;;
50249;SDS011;36133;42.522;27.456;2022-10-31T13:00:13;12.40;;;6.93;;
50249;SDS011;36133;42.522;27.456;2022-10-31T13:11:06;14.85;;;7.40;;
50249;SDS011;36133;42.522;27.456;2022-10-31T13:20:19;12.30;;;7.40;;
50249;SDS011;36133;42.522;27.456;2022-10-31T13:24:00;13.57;;;7.35;;
50249;SDS011;36133;42.522;27.456;2022-10-31T13:26:14;13.82;;;8.00;;
50249;SDS011;36133;42.522;27.456;2022-10-31T13:29:15;16.58;;;7.95;;
50249;SDS011;36133;42.522;27.456;2022-10-31T13:31:45;17.23;;;7.72;;
50249;SDS011;36133;42.522;27.456;2022-10-31T13:34:19;17.52;;;8.02;;
50249;SDS011;36133;42.522;27.456;2022-10-31T13:45:30;16.30;;;8.18;;
50249;SDS011;36133;42.522;27.456;2022-10-31T13:48:19;13.98;;;8.60;;
50249;SDS011;36133;42.522;27.456;2022-10-31T13:51:01;16.35;;;8.50;;
50249;SDS011;36133;42.522;27.456;2022-10-31T13:56:59;18.15;;;8.40;;
50249;SDS011;36133;42.522;27.456;2022-10-31T13:59:28;13.07;;;9.20;;
50249;SDS011;36133;42.522;27.456;2022-10-31T14:02:02;20.08;;;9.18;;
50249;SDS011;36133;42.522;27.456;2022-10-31T14:07:21;35.83;;;10.18;;
50249;SDS011;36133;42.522;27.456;2022-10-31T14:09:55;17.45;;;9.30;;
50249;SDS011;36133;42.522;27.456;2022-10-31T14:12:38;18.17;;;10.38;;
50249;SDS011;36133;42.522;27.456;2022-10-31T14:15:15;17.13;;;9.40;;
50249;SDS011;36133;42.522;27.456;2022-10-31T14:22:43;20.15;;;9.88;;
50249;SDS011;36133;42.522;27.456;2022-10-31T14:27:56;18.25;;;10.35;;
50249;SDS011;36133;42.522;27.456;2022-10-31T14:30:27;18.48;;;10.52;;
50249;SDS011;36133;42.522;27.456;2022-10-31T14:32:57;29.08;;;11.43;;
50249;SDS011;36133;42.522;27.456;2022-10-31T14:35:33;24.13;;;11.20;;
50249;SDS011;36133;42.522;27.456;2022-10-31T14:38:15;23.25;;;11.48;;
50249;SDS011;36133;42.522;27.456;2022-10-31T14:41:40;18.23;;;11.05;;
50249;SDS011;36133;42.522;27.456;2022-10-31T14:49:32;20.42;;;10.60;;
50249;SDS011;36133;42.522;27.456;2022-10-31T14:52:20;17.42;;;10.93;;
50249;SDS011;36133;42.522;27.456;2022-10-31T14:54:49;23.17;;;12.18;;
50249;SDS011;36133;42.522;27.456;2022-10-31T14:57:28;21.15;;;10.82;;
50249;SDS011;36133;42.522;27.456;2022-10-31T15:00:17;22.73;;;12.57;;
50249;SDS011;36133;42.522;27.456;2022-10-31T15:05:53;24.83;;;10.70;;
50249;SDS011;36133;42.522;27.456;2022-10-31T15:08:33;18.73;;;9.90;;
50249;SDS011;36133;42.522;27.456;2022-10-31T15:11:19;16.90;;;9.30;;
50249;SDS011;36133;42.522;27.456;2022-10-31T15:13:55;16.35;;;9.60;;
50249;SDS011;36133;42.522;27.456;2022-10-31T15:16:30;43.95;;;14.65;;
50249;SDS011;36133;42.522;27.456;2022-10-31T15:19:00;23.08;;;11.88;;
50249;SDS011;36133;42.522;27.456;2022-10-31T15:21:30;29.63;;;12.90;;
50249;SDS011;36133;42.522;27.456;2022-10-31T15:23:57;30.02;;;12.40;;
50249;SDS011;36133;42.522;27.456;2022-10-31T15:26:27;21.45;;;11.82;;
50249;SDS011;36133;42.522;27.456;2022-10-31T15:29:02;27.70;;;14.10;;
50249;SDS011;36133;42.522;27.456;2022-10-31T15:31:30;20.63;;;11.65;;
50249;SDS011;36133;42.522;27.456;2022-10-31T15:33:58;21.17;;;12.18;;
50249;SDS011;36133;42.522;27.456;2022-10-31T15:36:28;22.13;;;13.73;;
50249;SDS011;36133;42.522;27.456;2022-10-31T15:38:57;22.25;;;11.80;;
50249;SDS011;36133;42.522;27.456;2022-10-31T15:41:31;19.10;;;11.40;;
50249;SDS011;36133;42.522;27.456;2022-10-31T15:47:01;40.55;;;11.80;;
50249;SDS011;36133;42.522;27.456;2022-10-31T15:51:54;23.83;;;13.23;;
50249;SDS011;36133;42.522;27.456;2022-10-31T15:54:28;30.60;;;13.85;;
50249;SDS011;36133;42.522;27.456;2022-10-31T15:56:54;26.05;;;15.05;;
50249;SDS011;36133;42.522;27.456;2022-10-31T15:59:21;26.35;;;11.98;;
50249;SDS011;36133;42.522;27.456;2022-10-31T16:02:01;26.95;;;12.93;;
50249;SDS011;36133;42.522;27.456;2022-10-31T16:04:37;25.33;;;12.43;;
50249;SDS011;36133;42.522;27.456;2022-10-31T16:07:35;25.30;;;12.95;;
50249;SDS011;36133;42.522;27.456;2022-10-31T16:10:02;24.13;;;12.20;;
50249;SDS011;36133;42.522;27.456;2022-10-31T16:12:36;31.10;;;13.35;;
50249;SDS011;36133;42.522;27.456;2022-10-31T16:15:27;38.83;;;14.95;;
50249;SDS011;36133;42.522;27.456;2022-10-31T16:17:57;25.27;;;13.03;;
50249;SDS011;36133;42.522;27.456;2022-10-31T16:20:30;26.33;;;13.25;;
50249;SDS011;36133;42.522;27.456;2022-10-31T16:23:00;28.70;;;12.68;;
50249;SDS011;36133;42.522;27.456;2022-10-31T16:25:28;26.10;;;13.20;;
50249;SDS011;36133;42.522;27.456;2022-10-31T16:28:05;30.27;;;13.57;;
50249;SDS011;36133;42.522;27.456;2022-10-31T16:30:50;21.63;;;13.88;;
50249;SDS011;36133;42.522;27.456;2022-10-31T16:38:53;33.85;;;15.10;;
50249;SDS011;36133;42.522;27.456;2022-10-31T16:41:21;26.77;;;15.60;;
50249;SDS011;36133;42.522;27.456;2022-10-31T16:43:51;36.10;;;15.50;;
50249;SDS011;36133;42.522;27.456;2022-10-31T16:46:24;33.38;;;16.23;;
50249;SDS011;36133;42.522;27.456;2022-10-31T16:48:54;33.95;;;15.50;;
50249;SDS011;36133;42.522;27.456;2022-10-31T16:51:22;38.78;;;18.38;;
50249;SDS011;36133;42.522;27.456;2022-10-31T16:53:57;26.83;;;17.02;;
50249;SDS011;36133;42.522;27.456;2022-10-31T16:59:20;25.67;;;14.20;;
50249;SDS011;36133;42.522;27.456;2022-10-31T17:01:47;26.52;;;14.15;;
50249;SDS011;36133;42.522;27.456;2022-10-31T17:04:17;38.88;;;14.98;;
50249;SDS011;36133;42.522;27.456;2022-10-31T17:06:42;27.00;;;14.52;;
50249;SDS011;36133;42.522;27.456;2022-10-31T17:09:11;38.65;;;16.17;;
50249;SDS011;36133;42.522;27.456;2022-10-31T17:11:36;31.15;;;15.68;;
50249;SDS011;36133;42.522;27.456;2022-10-31T17:14:07;34.42;;;13.93;;
50249;SDS011;36133;42.522;27.456;2022-10-31T17:16:36;29.23;;;15.95;;
50249;SDS011;36133;42.522;27.456;2022-10-31T17:19:02;33.42;;;15.13;;
50249;SDS011;36133;42.522;27.456;2022-10-31T17:21:28;31.83;;;17.38;;
50249;SDS011;36133;42.522;27.456;2022-10-31T17:23:55;27.30;;;15.40;;
50249;SDS011;36133;42.522;27.456;2022-10-31T17:26:20;23.42;;;14.40;;